sensor_id;sensor_type;location;lat;lon;timestamp;pressure;altitude;pressure_sealevel;temperature;humidity
19795;BME280;10057;59.402;17.866;2023-03-15T00:01:51;98882.69;;;-0.38;80.83
19795;BME280;10057;59.402;17.866;2023-03-15T00:04:17;98887.09;;;-0.40;80.84
19795;BME280;10057;59.402;17.866;2023-03-15T00:06:45;98883.63;;;-0.40;81.26
19795;BME280;10057;59.402;17.866;2023-03-15T00:09:11;98888.00;;;-0.42;80.82
19795;BME280;10057;59.402;17.866;2023-03-15T00:11:38;98893.28;;;-0.45;80.99
19795;BME280;10057;59.402;17.866;2023-03-15T00:14:05;98902.84;;;-0.46;80.85
19795;BME280;10057;59.402;17.866;2023-03-15T00:16:32;98907.22;;;-0.46;81.02
19795;BME280;10057;59.402;17.866;2023-03-15T00:18:59;98902.00;;;-0.48;80.90
19795;BME280;10057;59.402;17.866;2023-03-15T00:21:26;98919.41;;;-0.49;80.80
19795;BME280;10057;59.402;17.866;2023-03-15T00:23:55;98917.69;;;-0.50;80.83
19795;BME280;10057;59.402;17.866;2023-03-15T00:26:22;98916.84;;;-0.50;80.96
19795;BME280;10057;59.402;17.866;2023-03-15T00:28:48;98925.56;;;-0.53;80.64
19795;BME280;10057;59.402;17.866;2023-03-15T00:31:18;98933.44;;;-0.56;80.43
19795;BME280;10057;59.402;17.866;2023-03-15T00:33:45;98940.47;;;-0.59;80.82
19795;BME280;10057;59.402;17.866;2023-03-15T00:36:12;98938.81;;;-0.63;80.65
19795;BME280;10057;59.402;17.866;2023-03-15T00:38:40;98944.06;;;-0.65;80.47
19795;BME280;10057;59.402;17.866;2023-03-15T00:41:14;98953.66;;;-0.68;80.55
19795;BME280;10057;59.402;17.866;2023-03-15T00:43:42;98952.00;;;-0.71;80.73
19795;BME280;10057;59.402;17.866;2023-03-15T00:46:09;98956.38;;;-0.73;80.48
19795;BME280;10057;59.402;17.866;2023-03-15T00:48:37;98963.38;;;-0.75;80.49
19795;BME280;10057;59.402;17.866;2023-03-15T00:51:16;98961.69;;;-0.78;80.46
19795;BME280;10057;59.402;17.866;2023-03-15T00:53:44;98968.69;;;-0.81;80.51
19795;BME280;10057;59.402;17.866;2023-03-15T00:56:23;98979.13;;;-0.83;80.54
19795;BME280;10057;59.402;17.866;2023-03-15T00:58:51;98978.25;;;-0.83;80.50
19795;BME280;10057;59.402;17.866;2023-03-15T01:01:21;98984.38;;;-0.84;80.58
19795;BME280;10057;59.402;17.866;2023-03-15T01:03:49;98988.72;;;-0.85;80.41
19795;BME280;10057;59.402;17.866;2023-03-15T01:06:18;98989.63;;;-0.87;80.33
19795;BME280;10057;59.402;17.866;2023-03-15T01:08:45;98995.72;;;-0.88;80.21
19795;BME280;10057;59.402;17.866;2023-03-15T01:11:16;99001.00;;;-0.91;80.31
19795;BME280;10057;59.402;17.866;2023-03-15T01:13:43;99011.41;;;-0.93;79.97
19795;BME280;10057;59.402;17.866;2023-03-15T01:16:11;99010.56;;;-0.93;80.09
19795;BME280;10057;59.402;17.866;2023-03-15T01:18:39;99018.41;;;-0.97;80.25
19795;BME280;10057;59.402;17.866;2023-03-15T01:21:11;99019.31;;;-0.98;80.08
19795;BME280;10057;59.402;17.866;2023-03-15T01:23:38;99027.16;;;-0.99;80.17
19795;BME280;10057;59.402;17.866;2023-03-15T01:26:09;99030.69;;;-1.02;80.04
19795;BME280;10057;59.402;17.866;2023-03-15T01:28:36;99034.19;;;-1.04;79.96
19795;BME280;10057;59.402;17.866;2023-03-15T01:31:03;99038.53;;;-1.06;79.94
19795;BME280;10057;59.402;17.866;2023-03-15T01:33:30;99033.44;;;-1.11;79.80
19795;BME280;10057;59.402;17.866;2023-03-15T01:38:25;99051.75;;;-1.17;80.12
19795;BME280;10057;59.402;17.866;2023-03-15T01:40:52;99052.63;;;-1.18;79.85
19795;BME280;10057;59.402;17.866;2023-03-15T01:43:21;99044.88;;;-1.20;79.88
19795;BME280;10057;59.402;17.866;2023-03-15T01:48:42;99057.03;;;-1.23;79.55
19795;BME280;10057;59.402;17.866;2023-03-15T01:51:26;99051.91;;;-1.28;80.05
19795;BME280;10057;59.402;17.866;2023-03-15T01:54:07;99061.53;;;-1.31;79.43
19795;BME280;10057;59.402;17.866;2023-03-15T01:56:37;99052.00;;;-1.34;79.60
19795;BME280;10057;59.402;17.866;2023-03-15T01:59:08;99058.16;;;-1.36;79.69
19795;BME280;10057;59.402;17.866;2023-03-15T02:01:39;99075.50;;;-1.38;79.56
19795;BME280;10057;59.402;17.866;2023-03-15T02:04:18;99070.34;;;-1.40;79.88
19795;BME280;10057;59.402;17.866;2023-03-15T02:06:51;99065.13;;;-1.40;79.45
19795;BME280;10057;59.402;17.866;2023-03-15T02:12:10;99079.88;;;-1.40;79.77
19795;BME280;10057;59.402;17.866;2023-03-15T02:14:37;99079.03;;;-1.42;79.53
19795;BME280;10057;59.402;17.866;2023-03-15T02:17:04;99086.84;;;-1.42;79.39
19795;BME280;10057;59.402;17.866;2023-03-15T02:19:56;99092.94;;;-1.44;79.86
19795;BME280;10057;59.402;17.866;2023-03-15T02:23:13;99106.00;;;-1.47;79.63
19795;BME280;10057;59.402;17.866;2023-03-15T02:27:56;99105.25;;;-1.58;79.33
19795;BME280;10057;59.402;17.866;2023-03-15T02:30:23;99107.91;;;-1.61;79.47
19795;BME280;10057;59.402;17.866;2023-03-15T02:32:50;99109.66;;;-1.61;79.42
19795;BME280;10057;59.402;17.866;2023-03-15T02:35:25;99116.59;;;-1.62;79.56
19795;BME280;10057;59.402;17.866;2023-03-15T02:37:53;99116.63;;;-1.65;79.37
19795;BME280;10057;59.402;17.866;2023-03-15T02:40:21;99127.88;;;-1.64;79.38
19795;BME280;10057;59.402;17.866;2023-03-15T02:42:53;99129.63;;;-1.65;79.48
19795;BME280;10057;59.402;17.866;2023-03-15T02:45:22;99136.63;;;-1.67;79.29
19795;BME280;10057;59.402;17.866;2023-03-15T02:47:50;99132.28;;;-1.68;79.73
19795;BME280;10057;59.402;17.866;2023-03-15T02:50:17;99133.16;;;-1.69;79.17
19795;BME280;10057;59.402;17.866;2023-03-15T02:52:44;99133.13;;;-1.66;79.64
19795;BME280;10057;59.402;17.866;2023-03-15T02:55:11;99138.25;;;-1.61;79.19
19795;BME280;10057;59.402;17.866;2023-03-15T02:57:37;99140.00;;;-1.62;79.60
19795;BME280;10057;59.402;17.866;2023-03-15T03:00:05;99137.47;;;-1.67;79.21
19795;BME280;10057;59.402;17.866;2023-03-15T03:02:44;99142.66;;;-1.68;79.24
19795;BME280;10057;59.402;17.866;2023-03-15T03:05:13;99153.97;;;-1.69;79.37
19795;BME280;10057;59.402;17.866;2023-03-15T03:07:40;99159.19;;;-1.72;79.31
19795;BME280;10057;59.402;17.866;2023-03-15T03:10:12;99166.19;;;-1.74;79.22
19795;BME280;10057;59.402;17.866;2023-03-15T03:12:39;99174.88;;;-1.77;79.49
19795;BME280;10057;59.402;17.866;2023-03-15T03:15:07;99174.88;;;-1.78;79.38
19795;BME280;10057;59.402;17.866;2023-03-15T03:17:33;99170.53;;;-1.76;79.24
19795;BME280;10057;59.402;17.866;2023-03-15T03:20:07;99177.44;;;-1.74;79.48
19795;BME280;10057;59.402;17.866;2023-03-15T03:22:36;99180.00;;;-1.72;79.04
19795;BME280;10057;59.402;17.866;2023-03-15T03:25:03;99186.91;;;-1.71;78.96
19795;BME280;10057;59.402;17.866;2023-03-15T03:27:31;99191.25;;;-1.70;78.90
19795;BME280;10057;59.402;17.866;2023-03-15T03:30:07;99194.72;;;-1.70;78.80
19795;BME280;10057;59.402;17.866;2023-03-15T03:32:34;99193.84;;;-1.70;78.81
19795;BME280;10057;59.402;17.866;2023-03-15T03:35:01;99195.56;;;-1.69;79.11
19795;BME280;10057;59.402;17.866;2023-03-15T03:37:28;99199.88;;;-1.67;78.90
19795;BME280;10057;59.402;17.866;2023-03-15T03:39:56;99210.25;;;-1.63;78.62
19795;BME280;10057;59.402;17.866;2023-03-15T03:42:23;99211.97;;;-1.62;79.16
19795;BME280;10057;59.402;17.866;2023-03-15T03:44:50;99218.06;;;-1.65;78.78
19795;BME280;10057;59.402;17.866;2023-03-15T03:47:19;99217.25;;;-1.70;78.55
19795;BME280;10057;59.402;17.866;2023-03-15T03:49:46;99215.53;;;-1.73;79.06
19795;BME280;10057;59.402;17.866;2023-03-15T03:52:13;99217.28;;;-1.73;78.51
19795;BME280;10057;59.402;17.866;2023-03-15T03:54:39;99219.91;;;-1.73;78.57
19795;BME280;10057;59.402;17.866;2023-03-15T03:57:08;99220.75;;;-1.73;78.70
19795;BME280;10057;59.402;17.866;2023-03-15T03:59:35;99225.06;;;-1.70;79.03
19795;BME280;10057;59.402;17.866;2023-03-15T04:02:02;99221.53;;;-1.68;79.04
19795;BME280;10057;59.402;17.866;2023-03-15T04:04:29;99223.25;;;-1.65;78.54
19795;BME280;10057;59.402;17.866;2023-03-15T04:06:56;99229.31;;;-1.64;78.99
19795;BME280;10057;59.402;17.866;2023-03-15T04:09:22;99226.72;;;-1.63;78.38
19795;BME280;10057;59.402;17.866;2023-03-15T04:11:50;99227.56;;;-1.62;79.01
19795;BME280;10057;59.402;17.866;2023-03-15T04:14:17;99228.44;;;-1.65;78.46
19795;BME280;10057;59.402;17.866;2023-03-15T04:16:44;99241.44;;;-1.63;78.31
19795;BME280;10057;59.402;17.866;2023-03-15T04:19:10;99237.13;;;-1.66;78.37
19795;BME280;10057;59.402;17.866;2023-03-15T04:21:38;99244.94;;;-1.68;78.58
19795;BME280;10057;59.402;17.866;2023-03-15T04:24:05;99241.50;;;-1.70;78.46
19795;BME280;10057;59.402;17.866;2023-03-15T04:26:32;99244.13;;;-1.71;78.48
19795;BME280;10057;59.402;17.866;2023-03-15T04:29:00;99249.31;;;-1.71;78.24
19795;BME280;10057;59.402;17.866;2023-03-15T04:31:26;99244.13;;;-1.70;78.70
19795;BME280;10057;59.402;17.866;2023-03-15T04:33:54;99249.31;;;-1.71;78.33
19795;BME280;10057;59.402;17.866;2023-03-15T04:36:21;99251.94;;;-1.73;78.66
19795;BME280;10057;59.402;17.866;2023-03-15T04:38:49;99247.63;;;-1.74;78.20
19795;BME280;10057;59.402;17.866;2023-03-15T04:41:17;99248.50;;;-1.75;78.51
19795;BME280;10057;59.402;17.866;2023-03-15T04:43:44;99258.03;;;-1.75;78.21
19795;BME280;10057;59.402;17.866;2023-03-15T04:46:10;99256.31;;;-1.76;78.47
19795;BME280;10057;59.402;17.866;2023-03-15T04:48:37;99256.31;;;-1.76;78.40
19795;BME280;10057;59.402;17.866;2023-03-15T04:51:04;99257.22;;;-1.77;78.28
19795;BME280;10057;59.402;17.866;2023-03-15T04:53:31;99266.72;;;-1.76;78.52
19795;BME280;10057;59.402;17.866;2023-03-15T04:55:58;99276.25;;;-1.78;77.97
19795;BME280;10057;59.402;17.866;2023-03-15T04:58:25;99282.34;;;-1.78;78.54
19795;BME280;10057;59.402;17.866;2023-03-15T05:00:52;99283.25;;;-1.80;78.33
19795;BME280;10057;59.402;17.866;2023-03-15T05:03:19;99288.44;;;-1.80;78.44
19795;BME280;10057;59.402;17.866;2023-03-15T05:05:46;99280.63;;;-1.80;78.49
19795;BME280;10057;59.402;17.866;2023-03-15T05:08:13;99289.25;;;-1.78;78.56
19795;BME280;10057;59.402;17.866;2023-03-15T05:10:40;99282.34;;;-1.78;78.28
19795;BME280;10057;59.402;17.866;2023-03-15T05:13:06;99281.47;;;-1.78;78.44
19795;BME280;10057;59.402;17.866;2023-03-15T05:15:33;99290.13;;;-1.76;78.22
19795;BME280;10057;59.402;17.866;2023-03-15T05:18:00;99294.44;;;-1.75;78.32
19795;BME280;10057;59.402;17.866;2023-03-15T05:20:26;99285.78;;;-1.76;78.39
19795;BME280;10057;59.402;17.866;2023-03-15T05:22:53;99293.56;;;-1.73;78.39
19795;BME280;10057;59.402;17.866;2023-03-15T05:25:20;99294.41;;;-1.72;78.09
19795;BME280;10057;59.402;17.866;2023-03-15T05:27:47;99298.78;;;-1.76;78.32
19795;BME280;10057;59.402;17.866;2023-03-15T05:30:14;99304.03;;;-1.80;78.18
19795;BME280;10057;59.402;17.866;2023-03-15T05:32:41;99311.84;;;-1.80;78.14
19795;BME280;10057;59.402;17.866;2023-03-15T05:35:10;99317.00;;;-1.79;78.40
19795;BME280;10057;59.402;17.866;2023-03-15T05:37:37;99315.28;;;-1.80;78.64
19795;BME280;10057;59.402;17.866;2023-03-15T05:40:05;99317.00;;;-1.77;78.79
19795;BME280;10057;59.402;17.866;2023-03-15T05:42:35;99323.03;;;-1.75;77.90
19795;BME280;10057;59.402;17.866;2023-03-15T05:45:01;99329.94;;;-1.71;78.18
19795;BME280;10057;59.402;17.866;2023-03-15T05:47:28;99329.94;;;-1.70;78.47
19795;BME280;10057;59.402;17.866;2023-03-15T05:49:55;99333.34;;;-1.66;78.12
19795;BME280;10057;59.402;17.866;2023-03-15T05:52:21;99339.41;;;-1.64;78.11
19795;BME280;10057;59.402;17.866;2023-03-15T05:54:48;99348.03;;;-1.62;77.92
19795;BME280;10057;59.402;17.866;2023-03-15T05:57:15;99345.44;;;-1.60;78.00
19795;BME280;10057;59.402;17.866;2023-03-15T05:59:42;99351.47;;;-1.57;77.95
19795;BME280;10057;59.402;17.866;2023-03-15T06:02:08;99353.16;;;-1.53;78.61
19795;BME280;10057;59.402;17.866;2023-03-15T06:04:35;99354.88;;;-1.52;78.38
19795;BME280;10057;59.402;17.866;2023-03-15T06:07:04;99363.50;;;-1.47;78.47
19795;BME280;10057;59.402;17.866;2023-03-15T06:09:30;99366.09;;;-1.44;78.31
19795;BME280;10057;59.402;17.866;2023-03-15T06:11:57;99372.13;;;-1.41;78.05
19795;BME280;10057;59.402;17.866;2023-03-15T06:14:25;99372.97;;;-1.39;78.02
19795;BME280;10057;59.402;17.866;2023-03-15T06:16:52;99376.44;;;-1.39;78.21
19795;BME280;10057;59.402;17.866;2023-03-15T06:19:19;99390.31;;;-1.38;78.24
19795;BME280;10057;59.402;17.866;2023-03-15T06:21:47;99397.28;;;-1.42;78.44
19795;BME280;10057;59.402;17.866;2023-03-15T06:24:14;99399.94;;;-1.48;78.44
19795;BME280;10057;59.402;17.866;2023-03-15T06:26:40;99413.81;;;-1.51;77.97
19795;BME280;10057;59.402;17.866;2023-03-15T06:29:07;99414.72;;;-1.52;78.48
19795;BME280;10057;59.402;17.866;2023-03-15T06:31:34;99418.19;;;-1.54;78.19
19795;BME280;10057;59.402;17.866;2023-03-15T06:34:01;99423.38;;;-1.54;78.61
19795;BME280;10057;59.402;17.866;2023-03-15T06:36:27;99423.41;;;-1.53;78.37
19795;BME280;10057;59.402;17.866;2023-03-15T06:38:54;99422.50;;;-1.52;78.51
19795;BME280;10057;59.402;17.866;2023-03-15T06:41:21;99431.97;;;-1.45;78.77
19795;BME280;10057;59.402;17.866;2023-03-15T06:43:47;99426.78;;;-1.43;78.62
19795;BME280;10057;59.402;17.866;2023-03-15T06:46:14;99423.28;;;-1.42;78.67
19795;BME280;10057;59.402;17.866;2023-03-15T06:48:41;99425.84;;;-1.37;78.42
19795;BME280;10057;59.402;17.866;2023-03-15T06:51:08;99431.00;;;-1.33;78.42
19795;BME280;10057;59.402;17.866;2023-03-15T06:53:34;99434.44;;;-1.29;78.67
19795;BME280;10057;59.402;17.866;2023-03-15T06:56:01;99427.47;;;-1.27;78.55
19795;BME280;10057;59.402;17.866;2023-03-15T06:58:27;99431.75;;;-1.22;78.47
19795;BME280;10057;59.402;17.866;2023-03-15T07:00:54;99432.56;;;-1.15;78.90
19795;BME280;10057;59.402;17.866;2023-03-15T07:03:21;99437.75;;;-1.12;78.13
19795;BME280;10057;59.402;17.866;2023-03-15T07:05:49;99441.16;;;-1.10;78.48
19795;BME280;10057;59.402;17.866;2023-03-15T07:08:20;99447.22;;;-1.08;78.22
19795;BME280;10057;59.402;17.866;2023-03-15T07:10:48;99449.78;;;-1.03;78.39
19795;BME280;10057;59.402;17.866;2023-03-15T07:13:16;99445.41;;;-1.00;78.19
19795;BME280;10057;59.402;17.866;2023-03-15T07:15:44;99447.09;;;-0.94;78.09
19795;BME280;10057;59.402;17.866;2023-03-15T07:18:11;99437.50;;;-0.90;78.05
19795;BME280;10057;59.402;17.866;2023-03-15T07:20:37;99437.47;;;-0.87;78.04
19795;BME280;10057;59.402;17.866;2023-03-15T07:23:04;99446.06;;;-0.82;77.75
19795;BME280;10057;59.402;17.866;2023-03-15T07:25:31;99451.28;;;-0.81;77.72
19795;BME280;10057;59.402;17.866;2023-03-15T07:28:07;99455.53;;;-0.74;77.31
19795;BME280;10057;59.402;17.866;2023-03-15T07:30:34;99452.91;;;-0.70;77.51
19795;BME280;10057;59.402;17.866;2023-03-15T07:33:00;99452.81;;;-0.66;77.36
19795;BME280;10057;59.402;17.866;2023-03-15T07:35:27;99455.41;;;-0.61;77.36
19795;BME280;10057;59.402;17.866;2023-03-15T07:37:54;99455.34;;;-0.58;77.35
19795;BME280;10057;59.402;17.866;2023-03-15T07:40:20;99457.03;;;-0.56;77.30
19795;BME280;10057;59.402;17.866;2023-03-15T07:42:47;99457.88;;;-0.51;77.36
19795;BME280;10057;59.402;17.866;2023-03-15T07:45:14;99464.75;;;-0.46;76.87
19795;BME280;10057;59.402;17.866;2023-03-15T07:47:41;99471.69;;;-0.44;77.02
19795;BME280;10057;59.402;17.866;2023-03-15T07:50:08;99470.72;;;-0.38;76.90
19795;BME280;10057;59.402;17.866;2023-03-15T07:52:35;99472.41;;;-0.34;77.17
19795;BME280;10057;59.402;17.866;2023-03-15T07:55:01;99480.16;;;-0.28;76.97
19795;BME280;10057;59.402;17.866;2023-03-15T07:57:30;99469.69;;;-0.25;76.46
19795;BME280;10057;59.402;17.866;2023-03-15T07:59:57;99472.25;;;-0.22;76.75
19795;BME280;10057;59.402;17.866;2023-03-15T08:02:24;99472.13;;;-0.13;76.69
19795;BME280;10057;59.402;17.866;2023-03-15T08:04:51;99488.56;;;-0.06;76.42
19795;BME280;10057;59.402;17.866;2023-03-15T08:07:18;99490.16;;;0.03;76.87
19795;BME280;10057;59.402;17.866;2023-03-15T08:09:45;99495.22;;;0.15;78.33
19795;BME280;10057;59.402;17.866;2023-03-15T08:12:12;99496.59;;;0.37;79.82
19795;BME280;10057;59.402;17.866;2023-03-15T08:14:38;99508.31;;;0.66;79.97
19795;BME280;10057;59.402;17.866;2023-03-15T08:17:05;99499.78;;;1.07;81.16
19795;BME280;10057;59.402;17.866;2023-03-15T08:19:32;99502.22;;;1.61;81.88
19795;BME280;10057;59.402;17.866;2023-03-15T08:21:58;99513.31;;;2.13;82.91
19795;BME280;10057;59.402;17.866;2023-03-15T08:24:25;99517.94;;;2.39;79.40
19795;BME280;10057;59.402;17.866;2023-03-15T08:26:52;99512.00;;;2.32;77.80
19795;BME280;10057;59.402;17.866;2023-03-15T08:29:19;99522.47;;;2.32;77.18
19795;BME280;10057;59.402;17.866;2023-03-15T08:31:45;99519.09;;;2.27;75.71
19795;BME280;10057;59.402;17.866;2023-03-15T08:34:12;99527.75;;;2.31;76.41
19795;BME280;10057;59.402;17.866;2023-03-15T08:36:39;99530.19;;;2.38;74.99
19795;BME280;10057;59.402;17.866;2023-03-15T08:39:07;99536.91;;;2.50;75.44
19795;BME280;10057;59.402;17.866;2023-03-15T08:41:34;99535.16;;;2.49;72.97
19795;BME280;10057;59.402;17.866;2023-03-15T08:44:00;99538.06;;;2.37;72.55
19795;BME280;10057;59.402;17.866;2023-03-15T08:46:27;99535.59;;;2.31;72.68
19795;BME280;10057;59.402;17.866;2023-03-15T08:48:54;99534.59;;;2.36;71.97
19795;BME280;10057;59.402;17.866;2023-03-15T08:51:20;99540.16;;;2.21;71.25
19795;BME280;10057;59.402;17.866;2023-03-15T08:53:47;99544.44;;;2.25;72.15
19795;BME280;10057;59.402;17.866;2023-03-15T08:56:14;99547.75;;;2.33;71.82
19795;BME280;10057;59.402;17.866;2023-03-15T08:58:40;99552.75;;;2.43;71.45
19795;BME280;10057;59.402;17.866;2023-03-15T09:01:13;99554.78;;;2.69;72.12
19795;BME280;10057;59.402;17.866;2023-03-15T09:03:40;99566.31;;;2.97;73.20
19795;BME280;10057;59.402;17.866;2023-03-15T09:06:08;99565.16;;;3.09;72.70
19795;BME280;10057;59.402;17.866;2023-03-15T09:08:35;99571.91;;;3.18;72.18
19795;BME280;10057;59.402;17.866;2023-03-15T09:11:01;99567.78;;;3.09;71.70
19795;BME280;10057;59.402;17.866;2023-03-15T09:13:29;99576.75;;;2.99;70.67
19795;BME280;10057;59.402;17.866;2023-03-15T09:15:56;99574.47;;;2.85;69.32
19795;BME280;10057;59.402;17.866;2023-03-15T09:18:23;99573.78;;;2.77;69.55
19795;BME280;10057;59.402;17.866;2023-03-15T09:20:50;99577.56;;;2.65;66.59
19795;BME280;10057;59.402;17.866;2023-03-15T09:23:17;99586.66;;;2.49;66.73
19795;BME280;10057;59.402;17.866;2023-03-15T09:25:43;99588.72;;;2.36;66.21
19795;BME280;10057;59.402;17.866;2023-03-15T09:28:10;99599.25;;;2.31;65.74
19795;BME280;10057;59.402;17.866;2023-03-15T09:30:38;99595.91;;;2.26;65.53
19795;BME280;10057;59.402;17.866;2023-03-15T09:33:06;99600.34;;;2.23;65.09
19795;BME280;10057;59.402;17.866;2023-03-15T09:35:33;99610.75;;;2.24;65.46
19795;BME280;10057;59.402;17.866;2023-03-15T09:38:01;99609.72;;;2.31;65.67
19795;BME280;10057;59.402;17.866;2023-03-15T09:40:32;99613.19;;;2.33;64.86
19795;BME280;10057;59.402;17.866;2023-03-15T09:48:36;99626.06;;;2.43;64.20
19795;BME280;10057;59.402;17.866;2023-03-15T09:51:07;99637.19;;;2.52;64.40
19795;BME280;10057;59.402;17.866;2023-03-15T09:56:35;99640.53;;;2.59;61.87
19795;BME280;10057;59.402;17.866;2023-03-15T09:59:04;99650.09;;;2.61;62.18
19795;BME280;10057;59.402;17.866;2023-03-15T10:01:35;99655.16;;;2.71;62.74
19795;BME280;10057;59.402;17.866;2023-03-15T10:04:23;99646.00;;;2.87;62.34
19795;BME280;10057;59.402;17.866;2023-03-15T10:06:55;99648.56;;;2.92;61.22
19795;BME280;10057;59.402;17.866;2023-03-15T10:09:24;99662.47;;;2.94;61.81
19795;BME280;10057;59.402;17.866;2023-03-15T10:12:26;99667.41;;;3.06;61.70
19795;BME280;10057;59.402;17.866;2023-03-15T10:20:47;99663.53;;;3.22;60.22
19795;BME280;10057;59.402;17.866;2023-03-15T10:23:22;99666.97;;;3.24;58.97
19795;BME280;10057;59.402;17.866;2023-03-15T10:25:54;99676.53;;;3.27;59.05
19795;BME280;10057;59.402;17.866;2023-03-15T10:28:28;99677.25;;;3.33;58.96
19795;BME280;10057;59.402;17.866;2023-03-15T10:31:10;99687.59;;;3.40;58.96
19795;BME280;10057;59.402;17.866;2023-03-15T10:33:52;99691.81;;;3.45;57.58
19795;BME280;10057;59.402;17.866;2023-03-15T10:36:21;99692.63;;;3.49;57.28
19795;BME280;10057;59.402;17.866;2023-03-15T10:38:49;99699.50;;;3.53;57.75
19795;BME280;10057;59.402;17.866;2023-03-15T10:41:39;99702.84;;;3.60;57.39
19795;BME280;10057;59.402;17.866;2023-03-15T10:44:11;99695.75;;;3.62;57.50
19795;BME280;10057;59.402;17.866;2023-03-15T10:46:38;99699.16;;;3.67;58.21
19795;BME280;10057;59.402;17.866;2023-03-15T10:49:09;99705.88;;;3.77;57.53
19795;BME280;10057;59.402;17.866;2023-03-15T10:51:43;99709.06;;;3.90;57.92
19795;BME280;10057;59.402;17.866;2023-03-15T10:54:14;99722.75;;;4.01;58.23
19795;BME280;10057;59.402;17.866;2023-03-15T10:56:45;99718.97;;;4.11;56.96
19795;BME280;10057;59.402;17.866;2023-03-15T10:59:24;99724.94;;;4.16;57.36
19795;BME280;10057;59.402;17.866;2023-03-15T11:01:53;99725.53;;;4.27;57.08
19795;BME280;10057;59.402;17.866;2023-03-15T11:04:22;99727.13;;;4.33;57.44
19795;BME280;10057;59.402;17.866;2023-03-15T11:06:59;99732.16;;;4.41;57.42
19795;BME280;10057;59.402;17.866;2023-03-15T11:09:52;99732.66;;;4.54;56.59
19795;BME280;10057;59.402;17.866;2023-03-15T11:12:24;99743.19;;;4.54;55.54
19795;BME280;10057;59.402;17.866;2023-03-15T11:15:10;99743.25;;;4.50;56.26
19795;BME280;10057;59.402;17.866;2023-03-15T11:17:45;99739.56;;;4.58;56.55
19795;BME280;10057;59.402;17.866;2023-03-15T11:20:41;99748.69;;;4.75;56.64
19795;BME280;10057;59.402;17.866;2023-03-15T11:23:22;99753.66;;;4.85;55.74
19795;BME280;10057;59.402;17.866;2023-03-15T11:25:52;99757.06;;;4.88;56.05
19795;BME280;10057;59.402;17.866;2023-03-15T11:28:22;99754.41;;;4.90;54.81
19795;BME280;10057;59.402;17.866;2023-03-15T11:30:51;99767.63;;;4.87;53.95
19795;BME280;10057;59.402;17.866;2023-03-15T11:33:36;99771.19;;;4.84;52.92
19795;BME280;10057;59.402;17.866;2023-03-15T11:36:06;99784.50;;;4.78;52.33
19795;BME280;10057;59.402;17.866;2023-03-15T11:38:40;99786.50;;;4.70;51.72
19795;BME280;10057;59.402;17.866;2023-03-15T11:41:19;99784.03;;;4.65;51.74
19795;BME280;10057;59.402;17.866;2023-03-15T11:46:42;99793.38;;;4.75;51.62
19795;BME280;10057;59.402;17.866;2023-03-15T11:49:15;99791.69;;;4.71;51.62
19795;BME280;10057;59.402;17.866;2023-03-15T11:51:44;99809.06;;;4.77;51.92
19795;BME280;10057;59.402;17.866;2023-03-15T11:54:25;99801.88;;;4.84;51.92
19795;BME280;10057;59.402;17.866;2023-03-15T11:56:55;99808.81;;;4.86;50.28
19795;BME280;10057;59.402;17.866;2023-03-15T11:59:32;99816.72;;;4.85;51.13
19795;BME280;10057;59.402;17.866;2023-03-15T12:04:37;99817.00;;;4.75;50.27
19795;BME280;10057;59.402;17.866;2023-03-15T12:09:45;99826.16;;;4.61;49.97
19795;BME280;10057;59.402;17.866;2023-03-15T12:17:54;99839.88;;;4.39;50.94
19795;BME280;10057;59.402;17.866;2023-03-15T12:20:39;99846.06;;;4.37;50.16
19795;BME280;10057;59.402;17.866;2023-03-15T12:25:37;99848.69;;;4.37;50.76
19795;BME280;10057;59.402;17.866;2023-03-15T12:29:12;99855.75;;;4.35;50.86
19795;BME280;10057;59.402;17.866;2023-03-15T12:31:12;99858.41;;;4.33;51.18
19795;BME280;10057;59.402;17.866;2023-03-15T12:33:46;99860.25;;;4.30;50.98
19795;BME280;10057;59.402;17.866;2023-03-15T12:36:36;99874.38;;;4.25;51.15
19795;BME280;10057;59.402;17.866;2023-03-15T12:41:44;99880.69;;;4.17;50.54
19795;BME280;10057;59.402;17.866;2023-03-15T12:47:02;99880.81;;;4.12;50.91
19795;BME280;10057;59.402;17.866;2023-03-15T12:49:41;99879.09;;;4.11;50.47
19795;BME280;10057;59.402;17.866;2023-03-15T12:54:52;99901.03;;;4.09;50.61
19795;BME280;10057;59.402;17.866;2023-03-15T12:57:36;99895.84;;;4.06;50.61
19795;BME280;10057;59.402;17.866;2023-03-15T13:00:22;99892.44;;;4.02;50.03
19795;BME280;10057;59.402;17.866;2023-03-15T13:03:02;99902.94;;;4.02;50.61
19795;BME280;10057;59.402;17.866;2023-03-15T13:08:16;99910.63;;;4.10;50.69
19795;BME280;10057;59.402;17.866;2023-03-15T13:13:43;99913.09;;;4.16;50.36
19795;BME280;10057;59.402;17.866;2023-03-15T13:16:32;99921.75;;;4.19;50.86
19795;BME280;10057;59.402;17.866;2023-03-15T13:25:03;99941.78;;;4.23;50.09
19795;BME280;10057;59.402;17.866;2023-03-15T13:33:03;99953.00;;;4.32;50.66
19795;BME280;10057;59.402;17.866;2023-03-15T13:35:30;99949.53;;;4.30;50.24
19795;BME280;10057;59.402;17.866;2023-03-15T13:38:20;99960.16;;;4.25;49.48
19795;BME280;10057;59.402;17.866;2023-03-15T13:40:48;99958.44;;;4.24;50.27
19795;BME280;10057;59.402;17.866;2023-03-15T13:43:15;99966.22;;;4.27;49.92
19795;BME280;10057;59.402;17.866;2023-03-15T13:45:42;99979.28;;;4.30;49.37
19795;BME280;10057;59.402;17.866;2023-03-15T13:48:09;99970.53;;;4.30;49.39
19795;BME280;10057;59.402;17.866;2023-03-15T13:50:38;99988.72;;;4.37;50.27
19795;BME280;10057;59.402;17.866;2023-03-15T13:53:05;99976.38;;;4.42;49.89
19795;BME280;10057;59.402;17.866;2023-03-15T13:55:34;99982.41;;;4.46;48.90
19795;BME280;10057;59.402;17.866;2023-03-15T13:58:06;99981.56;;;4.45;49.22
19795;BME280;10057;59.402;17.866;2023-03-15T14:00:34;99984.13;;;4.47;49.38
19795;BME280;10057;59.402;17.866;2023-03-15T14:03:05;99988.50;;;4.46;48.97
19795;BME280;10057;59.402;17.866;2023-03-15T14:05:42;99989.38;;;4.47;48.74
19795;BME280;10057;59.402;17.866;2023-03-15T14:08:30;99998.13;;;4.47;49.03
19795;BME280;10057;59.402;17.866;2023-03-15T14:11:01;100003.38;;;4.47;48.67
19795;BME280;10057;59.402;17.866;2023-03-15T14:13:33;99998.16;;;4.46;48.07
19795;BME280;10057;59.402;17.866;2023-03-15T14:16:04;100008.66;;;4.46;47.77